createdAt,value
2018-09-12T00:00:11.164Z,1028.37835607
2018-09-12T00:00:23.590Z,1028.37835607
2018-09-12T00:00:36.023Z,1028.37835607
2018-09-12T00:00:48.430Z,1028.37835607
2018-09-12T00:01:00.846Z,1028.37835607
2018-09-12T00:01:13.339Z,1028.44608383
2018-09-12T00:01:25.735Z,1028.44608383
2018-09-12T00:01:38.141Z,1028.44608383
2018-09-12T00:01:50.602Z,1028.44608383
2018-09-12T00:02:03.012Z,1028.44608383
2018-09-12T00:02:15.414Z,1028.44608383
2018-09-12T00:02:27.790Z,1028.44608383
2018-09-12T00:02:40.253Z,1028.44608383
2018-09-12T00:02:52.646Z,1028.44608383
2018-09-12T00:03:05.074Z,1028.41221995
2018-09-12T00:03:17.940Z,1028.41221995
2018-09-12T00:03:30.534Z,1028.41221995
2018-09-12T00:03:43.138Z,1028.41221995
2018-09-12T00:03:55.545Z,1028.41221995
2018-09-12T00:04:07.946Z,1028.34449219
2018-09-12T00:04:20.346Z,1028.34449219
2018-09-12T00:04:32.741Z,1028.34449219
2018-09-12T00:04:45.146Z,1028.34449219
2018-09-12T00:04:57.559Z,1028.34449219
2018-09-12T00:05:09.990Z,1028.47994771
2018-09-12T00:05:22.415Z,1028.47994771
2018-09-12T00:05:34.808Z,1028.47994771
2018-09-12T00:05:47.226Z,1028.47994771
2018-09-12T00:05:59.628Z,1028.47994771
2018-09-12T00:06:12.095Z,1028.41221995
2018-09-12T00:06:24.490Z,1028.41221995
2018-09-12T00:06:36.900Z,1028.41221995
2018-09-12T00:06:49.311Z,1028.41221995
2018-09-12T00:07:01.702Z,1028.41221995
2018-09-12T00:07:14.118Z,1028.44608383
2018-09-12T00:07:26.542Z,1028.44608383
2018-09-12T00:07:38.948Z,1028.44608383
2018-09-12T00:07:51.364Z,1028.44608383
2018-09-12T00:08:03.786Z,1028.34449219
2018-09-12T00:08:16.215Z,1028.34449219
2018-09-12T00:08:28.633Z,1028.34449219
2018-09-12T00:08:41.323Z,1028.34449219
2018-09-12T00:08:53.731Z,1028.34449219
2018-09-12T00:09:06.130Z,1028.44608383
2018-09-12T00:09:18.530Z,1028.44608383
2018-09-12T00:09:30.952Z,1028.44608383
2018-09-12T00:09:43.345Z,1028.44608383
2018-09-12T00:09:55.728Z,1028.44608383
2018-09-12T00:10:08.119Z,1028.34449219
2018-09-12T00:10:20.981Z,1028.34449219
2018-09-12T00:10:33.386Z,1028.34449219
2018-09-12T00:10:45.773Z,1028.34449219
2018-09-12T00:10:58.176Z,1028.34449219
2018-09-12T00:11:10.574Z,1028.41221995
2018-09-12T00:11:22.963Z,1028.41221995
2018-09-12T00:11:35.370Z,1028.41221995
2018-09-12T00:11:47.957Z,1028.41221995
2018-09-12T00:12:00.425Z,1028.41221995
2018-09-12T00:12:12.828Z,1028.41221995
2018-09-12T00:12:25.248Z,1028.41221995
2018-09-12T00:12:37.635Z,1028.41221995
2018-09-12T00:12:50.041Z,1028.41221995
2018-09-12T00:13:02.433Z,1028.41221995
2018-09-12T00:13:14.847Z,1028.41221995
2018-09-12T00:13:27.241Z,1028.41221995
2018-09-12T00:13:39.645Z,1028.41221995
2018-09-12T00:13:52.162Z,1028.41221995
2018-09-12T00:14:04.575Z,1028.41221995
2018-09-12T00:14:16.969Z,1028.41221995
2018-09-12T00:14:29.344Z,1028.41221995
2018-09-12T00:14:41.789Z,1028.41221995
2018-09-12T00:14:54.199Z,1028.41221995
2018-09-12T00:15:06.618Z,1028.47994771
2018-09-12T00:15:19.033Z,1028.47994771
2018-09-12T00:15:31.416Z,1028.47994771
2018-09-12T00:15:43.820Z,1028.47994771
2018-09-12T00:15:56.210Z,1028.47994771
2018-09-12T00:16:08.652Z,1028.37835607
2018-09-12T00:16:21.048Z,1028.37835607
2018-09-12T00:16:33.450Z,1028.37835607
2018-09-12T00:16:45.833Z,1028.37835607
2018-09-12T00:16:58.230Z,1028.37835607
2018-09-12T00:17:10.634Z,1028.34449219
2018-09-12T00:17:23.025Z,1028.34449219
2018-09-12T00:17:35.490Z,1028.34449219
2018-09-12T00:17:48.003Z,1028.34449219
2018-09-12T00:18:00.398Z,1028.34449219
2018-09-12T00:18:12.809Z,1028.47994771
2018-09-12T00:18:25.226Z,1028.47994771
2018-09-12T00:18:37.757Z,1028.47994771
2018-09-12T00:18:50.159Z,1028.47994771
2018-09-12T00:19:02.560Z,1028.41221995
2018-09-12T00:19:14.968Z,1028.41221995
2018-09-12T00:19:27.348Z,1028.41221995
2018-09-12T00:19:39.736Z,1028.41221995
2018-09-12T00:19:52.137Z,1028.41221995
2018-09-12T00:20:04.547Z,1028.47994771
2018-09-12T00:20:16.966Z,1028.47994771
2018-09-12T00:20:29.376Z,1028.47994771
2018-09-12T00:20:41.774Z,1028.47994771
2018-09-12T00:20:54.308Z,1028.47994771
2018-09-12T00:21:07.272Z,1028.47994771
2018-09-12T00:21:21.263Z,1028.47994771
2018-09-12T00:21:33.670Z,1028.47994771
2018-09-12T00:21:46.086Z,1028.47994771
2018-09-12T00:21:58.503Z,1028.47994771
2018-09-12T00:22:10.917Z,1028.54767548
2018-09-12T00:22:23.314Z,1028.54767548
2018-09-12T00:22:35.715Z,1028.54767548
2018-09-12T00:22:48.116Z,1028.54767548
2018-09-12T00:23:00.527Z,1028.54767548
2018-09-12T00:23:13.028Z,1028.41221995
2018-09-12T00:23:25.447Z,1028.41221995
2018-09-12T00:23:37.839Z,1028.41221995
2018-09-12T00:23:50.240Z,1028.41221995
2018-09-12T00:24:02.896Z,1028.47994771
2018-09-12T00:24:15.319Z,1028.47994771
2018-09-12T00:24:27.739Z,1028.47994771
2018-09-12T00:24:40.515Z,1028.47994771
2018-09-12T00:24:52.929Z,1028.47994771
2018-09-12T00:25:05.432Z,1028.47994771
2018-09-12T00:25:17.896Z,1028.47994771
2018-09-12T00:25:30.328Z,1028.47994771
2018-09-12T00:25:42.914Z,1028.47994771
2018-09-12T00:25:55.318Z,1028.47994771
2018-09-12T00:26:07.731Z,1028.34449219
2018-09-12T00:26:20.157Z,1028.34449219
2018-09-12T00:26:32.581Z,1028.34449219
2018-09-12T00:26:44.987Z,1028.34449219
2018-09-12T00:26:57.375Z,1028.34449219
2018-09-12T00:27:09.837Z,1028.34449219
2018-09-12T00:27:22.260Z,1028.34449219
2018-09-12T00:27:34.664Z,1028.34449219
2018-09-12T00:27:47.088Z,1028.34449219
2018-09-12T00:27:59.498Z,1028.34449219
2018-09-12T00:28:11.905Z,1028.41221995
2018-09-12T00:28:24.296Z,1028.41221995
2018-09-12T00:28:36.688Z,1028.41221995
2018-09-12T00:28:49.094Z,1028.41221995
2018-09-12T00:29:01.486Z,1028.41221995
2018-09-12T00:29:13.886Z,1028.37835607
2018-09-12T00:29:26.296Z,1028.37835607
2018-09-12T00:29:38.867Z,1028.37835607
2018-09-12T00:29:51.268Z,1028.37835607
2018-09-12T00:30:03.646Z,1028.41221995
2018-09-12T00:30:16.096Z,1028.41221995
2018-09-12T00:30:28.490Z,1028.41221995
2018-09-12T00:30:40.894Z,1028.41221995
2018-09-12T00:30:53.341Z,1028.41221995
2018-09-12T00:31:05.726Z,1028.41221995
2018-09-12T00:31:18.135Z,1028.41221995
2018-09-12T00:31:30.767Z,1028.41221995
2018-09-12T00:31:43.177Z,1028.41221995
2018-09-12T00:31:55.575Z,1028.41221995
2018-09-12T00:32:07.984Z,1028.41221995
2018-09-12T00:32:20.389Z,1028.41221995
2018-09-12T00:32:32.868Z,1028.41221995
2018-09-12T00:32:45.274Z,1028.41221995
2018-09-12T00:32:57.682Z,1028.41221995
2018-09-12T00:33:10.156Z,1028.31062831
2018-09-12T00:33:22.552Z,1028.31062831
2018-09-12T00:33:34.992Z,1028.31062831
2018-09-12T00:33:47.402Z,1028.31062831
2018-09-12T00:33:59.797Z,1028.31062831
2018-09-12T00:34:12.201Z,1028.41221995
2018-09-12T00:34:24.598Z,1028.41221995
2018-09-12T00:34:37.017Z,1028.41221995
2018-09-12T00:34:49.413Z,1028.41221995
2018-09-12T00:35:01.808Z,1028.41221995
2018-09-12T00:35:14.190Z,1028.41221995
2018-09-12T00:35:26.585Z,1028.41221995
2018-09-12T00:35:38.984Z,1028.41221995
2018-09-12T00:35:51.399Z,1028.41221995
2018-09-12T00:36:03.811Z,1028.37835607
2018-09-12T00:36:16.205Z,1028.37835607
2018-09-12T00:36:28.756Z,1028.37835607
2018-09-12T00:36:41.177Z,1028.37835607
2018-09-12T00:36:53.575Z,1028.37835607
2018-09-12T00:37:06.005Z,1028.41221995
2018-09-12T00:37:18.697Z,1028.41221995
2018-09-12T00:37:31.113Z,1028.41221995
2018-09-12T00:37:43.565Z,1028.41221995
2018-09-12T00:37:55.975Z,1028.41221995
2018-09-12T00:38:08.378Z,1028.41221995
2018-09-12T00:38:20.818Z,1028.41221995
2018-09-12T00:38:33.227Z,1028.41221995
2018-09-12T00:38:45.627Z,1028.41221995
2018-09-12T00:38:58.033Z,1028.41221995
2018-09-12T00:39:10.477Z,1028.37835607
2018-09-12T00:39:22.882Z,1028.37835607
2018-09-12T00:39:35.284Z,1028.37835607
2018-09-12T00:39:47.721Z,1028.37835607
2018-09-12T00:40:00.115Z,1028.37835607
2018-09-12T00:40:12.523Z,1028.27676442
2018-09-12T00:40:24.952Z,1028.27676442
2018-09-12T00:40:37.337Z,1028.27676442
2018-09-12T00:40:49.754Z,1028.27676442
2018-09-12T00:41:02.247Z,1028.27676442
2018-09-12T00:41:14.650Z,1028.41221995
2018-09-12T00:41:27.043Z,1028.41221995
2018-09-12T00:41:39.460Z,1028.41221995
2018-09-12T00:41:51.870Z,1028.41221995
2018-09-12T00:42:04.266Z,1028.37835607
2018-09-12T00:42:16.706Z,1028.37835607
2018-09-12T00:42:29.120Z,1028.37835607
2018-09-12T00:42:41.518Z,1028.37835607
2018-09-12T00:42:53.943Z,1028.37835607
2018-09-12T00:43:06.336Z,1028.37835607
2018-09-12T00:43:18.737Z,1028.37835607
2018-09-12T00:43:31.158Z,1028.37835607
2018-09-12T00:43:43.575Z,1028.37835607
2018-09-12T00:43:55.970Z,1028.37835607
2018-09-12T00:44:08.371Z,1028.37835607
2018-09-12T00:44:20.804Z,1028.37835607
2018-09-12T00:44:33.213Z,1028.37835607
2018-09-12T00:44:45.608Z,1028.37835607
2018-09-12T00:44:58.014Z,1028.37835607
2018-09-12T00:45:10.429Z,1028.37835607
2018-09-12T00:45:22.826Z,1028.37835607
2018-09-12T00:45:35.229Z,1028.37835607
2018-09-12T00:45:47.629Z,1028.37835607
2018-09-12T00:46:00.038Z,1028.37835607
2018-09-12T00:46:12.429Z,1028.47994771
2018-09-12T00:46:24.836Z,1028.47994771
2018-09-12T00:46:37.527Z,1028.47994771
2018-09-12T00:46:49.930Z,1028.47994771
2018-09-12T00:47:02.358Z,1028.47994771
2018-09-12T00:47:14.750Z,1028.37835607
2018-09-12T00:47:27.137Z,1028.37835607
2018-09-12T00:47:39.545Z,1028.37835607
2018-09-12T00:47:51.945Z,1028.37835607
2018-09-12T00:48:04.354Z,1028.34449219
2018-09-12T00:48:16.767Z,1028.34449219
2018-09-12T00:48:29.184Z,1028.34449219
2018-09-12T00:48:41.631Z,1028.34449219
2018-09-12T00:48:54.037Z,1028.34449219
2018-09-12T00:49:06.447Z,1028.37835607
2018-09-12T00:49:19.112Z,1028.37835607
2018-09-12T00:49:31.531Z,1028.37835607
2018-09-12T00:49:43.930Z,1028.37835607
2018-09-12T00:49:56.440Z,1028.37835607
2018-09-12T00:50:08.856Z,1028.34449219
2018-09-12T00:50:21.378Z,1028.34449219
2018-09-12T00:50:33.829Z,1028.34449219
2018-09-12T00:50:46.234Z,1028.34449219
2018-09-12T00:50:58.643Z,1028.34449219
2018-09-12T00:51:11.042Z,1028.37835607
2018-09-12T00:51:23.466Z,1028.37835607
2018-09-12T00:51:35.883Z,1028.37835607
2018-09-12T00:51:48.302Z,1028.37835607
2018-09-12T00:52:00.705Z,1028.37835607
2018-09-12T00:52:13.119Z,1028.37835607
2018-09-12T00:52:25.545Z,1028.37835607
2018-09-12T00:52:37.937Z,1028.37835607
2018-09-12T00:52:50.328Z,1028.37835607
2018-09-12T00:53:02.736Z,1028.34449219
2018-09-12T00:53:15.170Z,1028.34449219
2018-09-12T00:53:27.572Z,1028.34449219
2018-09-12T00:53:39.961Z,1028.34449219
2018-09-12T00:53:52.374Z,1028.34449219
2018-09-12T00:54:04.778Z,1028.34449219
2018-09-12T00:54:17.196Z,1028.34449219
2018-09-12T00:54:29.628Z,1028.34449219
2018-09-12T00:54:42.041Z,1028.34449219
2018-09-12T00:54:54.514Z,1028.34449219
2018-09-12T00:55:06.922Z,1028.41221995
2018-09-12T00:55:19.317Z,1028.41221995
2018-09-12T00:55:31.729Z,1028.41221995
2018-09-12T00:55:44.129Z,1028.41221995
2018-09-12T00:55:56.703Z,1028.41221995
2018-09-12T00:56:09.229Z,1028.31062831
2018-09-12T00:56:21.639Z,1028.31062831
2018-09-12T00:56:34.029Z,1028.31062831
2018-09-12T00:56:46.435Z,1028.31062831
2018-09-12T00:56:58.906Z,1028.31062831
2018-09-12T00:57:11.395Z,1028.37835607
2018-09-12T00:57:23.805Z,1028.37835607
2018-09-12T00:57:36.217Z,1028.37835607
2018-09-12T00:57:48.609Z,1028.37835607
2018-09-12T00:58:01.024Z,1028.37835607
2018-09-12T00:58:13.519Z,1028.34449219
2018-09-12T00:58:25.915Z,1028.34449219
2018-09-12T00:58:38.341Z,1028.34449219
2018-09-12T00:58:50.755Z,1028.34449219
2018-09-12T00:59:03.160Z,1028.34449219
2018-09-12T00:59:15.764Z,1028.34449219
2018-09-12T00:59:28.209Z,1028.34449219
2018-09-12T00:59:40.638Z,1028.34449219
2018-09-12T00:59:53.087Z,1028.34449219
2018-09-12T01:00:05.565Z,1028.37835607
2018-09-12T01:00:18.114Z,1028.37835607
2018-09-12T01:00:30.552Z,1028.37835607
2018-09-12T01:00:42.982Z,1028.37835607
2018-09-12T01:00:55.405Z,1028.37835607
2018-09-12T01:01:07.812Z,1028.37835607
2018-09-12T01:01:20.228Z,1028.37835607
2018-09-12T01:01:32.652Z,1028.37835607
2018-09-12T01:01:45.060Z,1028.37835607
2018-09-12T01:01:57.484Z,1028.37835607
2018-09-12T01:02:09.892Z,1028.34449219
2018-09-12T01:02:22.290Z,1028.34449219
2018-09-12T01:02:34.723Z,1028.34449219
2018-09-12T01:02:47.127Z,1028.34449219
2018-09-12T01:02:59.532Z,1028.34449219
2018-09-12T01:03:11.947Z,1028.37835607
2018-09-12T01:03:24.491Z,1028.37835607
2018-09-12T01:03:37.167Z,1028.37835607
2018-09-12T01:03:49.574Z,1028.37835607
2018-09-12T01:04:01.989Z,1028.37835607
2018-09-12T01:04:14.552Z,1028.34449219
2018-09-12T01:04:26.953Z,1028.34449219
2018-09-12T01:04:39.356Z,1028.34449219
2018-09-12T01:04:51.896Z,1028.34449219
2018-09-12T01:05:04.321Z,1028.31062831
2018-09-12T01:05:16.734Z,1028.31062831
2018-09-12T01:05:29.118Z,1028.31062831
2018-09-12T01:05:41.520Z,1028.31062831
2018-09-12T01:05:53.942Z,1028.31062831
2018-09-12T01:06:06.369Z,1028.41221995
2018-09-12T01:06:18.771Z,1028.41221995
2018-09-12T01:06:31.210Z,1028.41221995
2018-09-12T01:06:43.596Z,1028.41221995
2018-09-12T01:06:56.003Z,1028.41221995
2018-09-12T01:07:08.415Z,1028.47994771
2018-09-12T01:07:20.872Z,1028.47994771
2018-09-12T01:07:33.272Z,1028.47994771
2018-09-12T01:07:45.691Z,1028.47994771
2018-09-12T01:07:58.101Z,1028.47994771
2018-09-12T01:08:10.497Z,1028.37835607
2018-09-12T01:08:22.929Z,1028.37835607
2018-09-12T01:08:35.335Z,1028.37835607
2018-09-12T01:08:47.763Z,1028.37835607
2018-09-12T01:09:00.210Z,1028.37835607
2018-09-12T01:09:12.631Z,1028.41221995
2018-09-12T01:09:25.137Z,1028.41221995
2018-09-12T01:09:37.532Z,1028.41221995
2018-09-12T01:09:49.947Z,1028.41221995
2018-09-12T01:10:02.350Z,1028.41221995
2018-09-12T01:10:14.910Z,1028.47994771
2018-09-12T01:10:27.476Z,1028.47994771
2018-09-12T01:10:39.866Z,1028.47994771
2018-09-12T01:10:52.246Z,1028.47994771
2018-09-12T01:11:04.685Z,1028.34449219
2018-09-12T01:11:17.075Z,1028.34449219
2018-09-12T01:11:29.479Z,1028.34449219
2018-09-12T01:11:42.035Z,1028.34449219
2018-09-12T01:11:54.581Z,1028.34449219
2018-09-12T01:12:06.997Z,1028.41221995
2018-09-12T01:12:19.414Z,1028.41221995
2018-09-12T01:12:31.864Z,1028.41221995
2018-09-12T01:12:44.277Z,1028.41221995
2018-09-12T01:12:56.694Z,1028.41221995
2018-09-12T01:13:09.108Z,1028.37835607
2018-09-12T01:13:21.517Z,1028.37835607
2018-09-12T01:13:33.908Z,1028.37835607
2018-09-12T01:13:46.342Z,1028.37835607
2018-09-12T01:13:58.779Z,1028.37835607
2018-09-12T01:14:11.218Z,1028.47994771
2018-09-12T01:14:23.611Z,1028.47994771
2018-09-12T01:14:36.036Z,1028.47994771
2018-09-12T01:14:48.450Z,1028.47994771
2018-09-12T01:15:00.923Z,1028.47994771
2018-09-12T01:15:13.538Z,1028.34449219
2018-09-12T01:15:25.953Z,1028.34449219
2018-09-12T01:15:38.358Z,1028.34449219
2018-09-12T01:15:50.776Z,1028.34449219
2018-09-12T01:16:03.162Z,1028.41221995
2018-09-12T01:16:15.553Z,1028.41221995
2018-09-12T01:16:27.950Z,1028.41221995
2018-09-12T01:16:40.369Z,1028.41221995
2018-09-12T01:16:52.834Z,1028.41221995
2018-09-12T01:17:05.256Z,1028.44608383
2018-09-12T01:17:17.686Z,1028.44608383
2018-09-12T01:17:30.110Z,1028.44608383
2018-09-12T01:17:42.612Z,1028.44608383
2018-09-12T01:17:55.007Z,1028.44608383
2018-09-12T01:18:07.454Z,1028.41221995
2018-09-12T01:18:19.855Z,1028.41221995
2018-09-12T01:18:32.268Z,1028.41221995
2018-09-12T01:18:44.728Z,1028.41221995
2018-09-12T01:18:57.130Z,1028.41221995
2018-09-12T01:19:09.536Z,1028.41221995
2018-09-12T01:19:21.954Z,1028.41221995
2018-09-12T01:19:34.375Z,1028.41221995
2018-09-12T01:19:46.775Z,1028.41221995
2018-09-12T01:19:59.182Z,1028.41221995
2018-09-12T01:20:11.594Z,1028.41221995
2018-09-12T01:20:24.016Z,1028.41221995
2018-09-12T01:20:36.430Z,1028.41221995
2018-09-12T01:20:48.850Z,1028.41221995
2018-09-12T01:21:01.398Z,1028.41221995
2018-09-12T01:21:13.814Z,1028.37835607
2018-09-12T01:21:26.244Z,1028.37835607
2018-09-12T01:21:38.646Z,1028.37835607
2018-09-12T01:21:51.043Z,1028.37835607
2018-09-12T01:22:03.452Z,1028.41221995
2018-09-12T01:22:15.869Z,1028.41221995
2018-09-12T01:22:28.282Z,1028.41221995
2018-09-12T01:22:40.675Z,1028.41221995
2018-09-12T01:22:53.091Z,1028.41221995
2018-09-12T01:23:05.492Z,1028.47994771
2018-09-12T01:23:17.994Z,1028.47994771
2018-09-12T01:23:30.416Z,1028.47994771
2018-09-12T01:23:42.833Z,1028.47994771
2018-09-12T01:23:55.320Z,1028.47994771
2018-09-12T01:24:07.734Z,1028.44608383
2018-09-12T01:24:20.126Z,1028.44608383
2018-09-12T01:24:32.525Z,1028.44608383
2018-09-12T01:24:44.920Z,1028.44608383
2018-09-12T01:24:57.340Z,1028.44608383
2018-09-12T01:25:09.752Z,1028.41221995
2018-09-12T01:25:22.148Z,1028.41221995
2018-09-12T01:25:34.813Z,1028.41221995
2018-09-12T01:25:47.217Z,1028.41221995
2018-09-12T01:25:59.654Z,1028.41221995
2018-09-12T01:26:12.069Z,1028.41221995
2018-09-12T01:26:24.479Z,1028.41221995
2018-09-12T01:26:36.880Z,1028.41221995
2018-09-12T01:26:49.276Z,1028.41221995
2018-09-12T01:27:01.683Z,1028.41221995
2018-09-12T01:27:14.112Z,1028.44608383
2018-09-12T01:27:26.536Z,1028.44608383
2018-09-12T01:27:38.969Z,1028.44608383
2018-09-12T01:27:51.357Z,1028.44608383
2018-09-12T01:28:03.755Z,1028.47994771
2018-09-12T01:28:16.156Z,1028.47994771
2018-09-12T01:28:28.574Z,1028.47994771
2018-09-12T01:28:40.976Z,1028.47994771
2018-09-12T01:28:53.377Z,1028.47994771
2018-09-12T01:29:05.820Z,1028.47994771
2018-09-12T01:29:18.237Z,1028.47994771
2018-09-12T01:29:30.650Z,1028.47994771
2018-09-12T01:29:43.048Z,1028.47994771
2018-09-12T01:29:55.460Z,1028.47994771
2018-09-12T01:30:07.859Z,1028.41221995
2018-09-12T01:30:20.314Z,1028.41221995
2018-09-12T01:30:32.717Z,1028.41221995
2018-09-12T01:30:45.120Z,1028.41221995
2018-09-12T01:30:57.583Z,1028.41221995
2018-09-12T01:31:10.002Z,1028.41221995
2018-09-12T01:31:22.409Z,1028.41221995
2018-09-12T01:31:34.818Z,1028.41221995
2018-09-12T01:31:47.432Z,1028.41221995
2018-09-12T01:31:59.941Z,1028.41221995
2018-09-12T01:32:12.351Z,1028.47994771
2018-09-12T01:32:24.737Z,1028.47994771
2018-09-12T01:32:37.123Z,1028.47994771
2018-09-12T01:32:49.530Z,1028.47994771
2018-09-12T01:33:01.932Z,1028.47994771
2018-09-12T01:33:14.344Z,1028.41221995
2018-09-12T01:33:26.753Z,1028.41221995
2018-09-12T01:33:39.168Z,1028.41221995
2018-09-12T01:33:51.564Z,1028.41221995
2018-09-12T01:34:03.989Z,1028.41221995
2018-09-12T01:34:16.382Z,1028.41221995
2018-09-12T01:34:28.795Z,1028.41221995
2018-09-12T01:34:41.197Z,1028.41221995
2018-09-12T01:34:53.640Z,1028.41221995
2018-09-12T01:35:06.041Z,1028.37835607
2018-09-12T01:35:18.468Z,1028.37835607
2018-09-12T01:35:30.871Z,1028.37835607
2018-09-12T01:35:43.271Z,1028.37835607
2018-09-12T01:35:55.676Z,1028.37835607
2018-09-12T01:36:08.083Z,1028.44608383
2018-09-12T01:36:20.508Z,1028.44608383
2018-09-12T01:36:32.908Z,1028.44608383
2018-09-12T01:36:45.314Z,1028.44608383
2018-09-12T01:36:57.778Z,1028.44608383
2018-09-12T01:37:10.183Z,1028.31062831
2018-09-12T01:37:22.609Z,1028.31062831
2018-09-12T01:37:35.155Z,1028.31062831
2018-09-12T01:37:47.586Z,1028.31062831
2018-09-12T01:37:59.995Z,1028.31062831
2018-09-12T01:38:12.446Z,1028.37835607
2018-09-12T01:38:24.872Z,1028.37835607
2018-09-12T01:38:37.277Z,1028.37835607
2018-09-12T01:38:49.688Z,1028.37835607
2018-09-12T01:39:02.098Z,1028.37835607
2018-09-12T01:39:14.533Z,1028.34449219
2018-09-12T01:39:26.943Z,1028.34449219
2018-09-12T01:39:39.340Z,1028.34449219
2018-09-12T01:39:51.748Z,1028.34449219
2018-09-12T01:40:04.159Z,1028.37835607
2018-09-12T01:40:16.548Z,1028.37835607
2018-09-12T01:40:28.964Z,1028.37835607
2018-09-12T01:40:41.437Z,1028.37835607
2018-09-12T01:40:53.864Z,1028.37835607
2018-09-12T01:41:06.263Z,1028.41221995
2018-09-12T01:41:18.648Z,1028.41221995
2018-09-12T01:41:31.044Z,1028.41221995
2018-09-12T01:41:43.440Z,1028.41221995
2018-09-12T01:41:55.827Z,1028.41221995
2018-09-12T01:42:08.226Z,1028.37835607
2018-09-12T01:42:20.622Z,1028.37835607
2018-09-12T01:42:33.033Z,1028.37835607
2018-09-12T01:42:45.536Z,1028.37835607
2018-09-12T01:42:57.941Z,1028.37835607
2018-09-12T01:43:10.343Z,1028.31062831
2018-09-12T01:43:22.745Z,1028.31062831
2018-09-12T01:43:35.128Z,1028.31062831
2018-09-12T01:43:47.526Z,1028.31062831
2018-09-12T01:43:59.916Z,1028.31062831
2018-09-12T01:44:12.357Z,1028.34449219
2018-09-12T01:44:24.775Z,1028.34449219
2018-09-12T01:44:37.215Z,1028.34449219
2018-09-12T01:44:49.618Z,1028.34449219
2018-09-12T01:45:02.016Z,1028.34449219
2018-09-12T01:45:14.417Z,1028.37835607
2018-09-12T01:45:26.823Z,1028.37835607
2018-09-12T01:45:39.225Z,1028.37835607
2018-09-12T01:45:51.632Z,1028.37835607
2018-09-12T01:46:04.046Z,1028.41221995
2018-09-12T01:46:16.481Z,1028.41221995
2018-09-12T01:46:28.875Z,1028.41221995
2018-09-12T01:46:41.309Z,1028.41221995
2018-09-12T01:46:53.703Z,1028.41221995
2018-09-12T01:47:06.130Z,1028.31062831
2018-09-12T01:47:18.568Z,1028.31062831
2018-09-12T01:47:30.982Z,1028.31062831
2018-09-12T01:47:43.388Z,1028.31062831
2018-09-12T01:47:55.878Z,1028.31062831
2018-09-12T01:48:08.280Z,1028.41221995
2018-09-12T01:48:20.713Z,1028.41221995
2018-09-12T01:48:33.114Z,1028.41221995
2018-09-12T01:48:45.505Z,1028.41221995
2018-09-12T01:48:57.927Z,1028.41221995
2018-09-12T01:49:10.330Z,1028.41221995
2018-09-12T01:49:22.934Z,1028.41221995
2018-09-12T01:49:35.362Z,1028.41221995
2018-09-12T01:49:47.783Z,1028.41221995
2018-09-12T01:50:00.170Z,1028.41221995
2018-09-12T01:50:12.593Z,1028.34449219
2018-09-12T01:50:25.004Z,1028.34449219
2018-09-12T01:50:37.415Z,1028.34449219
2018-09-12T01:50:50.024Z,1028.34449219
2018-09-12T01:51:02.433Z,1028.34449219
2018-09-12T01:51:14.839Z,1028.34449219
2018-09-12T01:51:27.245Z,1028.34449219
2018-09-12T01:51:39.639Z,1028.34449219
2018-09-12T01:51:52.078Z,1028.34449219
2018-09-12T01:52:04.505Z,1028.34449219
2018-09-12T01:52:16.919Z,1028.34449219
2018-09-12T01:52:29.360Z,1028.34449219
2018-09-12T01:52:41.777Z,1028.34449219
2018-09-12T01:52:54.211Z,1028.34449219
2018-09-12T01:53:06.864Z,1028.41221995
2018-09-12T01:53:19.281Z,1028.41221995
2018-09-12T01:53:31.818Z,1028.41221995
2018-09-12T01:53:44.222Z,1028.41221995
2018-09-12T01:53:56.633Z,1028.41221995
2018-09-12T01:54:09.041Z,1028.37835607
2018-09-12T01:54:21.444Z,1028.37835607
2018-09-12T01:54:33.910Z,1028.37835607
2018-09-12T01:54:46.305Z,1028.37835607
2018-09-12T01:54:58.720Z,1028.37835607
2018-09-12T01:55:11.173Z,1028.37835607
2018-09-12T01:55:23.574Z,1028.37835607
2018-09-12T01:55:35.987Z,1028.37835607
2018-09-12T01:55:48.522Z,1028.37835607
2018-09-12T01:56:00.949Z,1028.37835607
2018-09-12T01:56:13.336Z,1028.31062831
2018-09-12T01:56:25.738Z,1028.31062831
2018-09-12T01:56:38.252Z,1028.31062831
2018-09-12T01:56:50.652Z,1028.31062831
2018-09-12T01:57:03.057Z,1028.37835607
2018-09-12T01:57:15.450Z,1028.37835607
2018-09-12T01:57:27.887Z,1028.37835607
2018-09-12T01:57:40.281Z,1028.37835607
2018-09-12T01:57:52.695Z,1028.37835607
2018-09-12T01:58:05.103Z,1028.31062831
2018-09-12T01:58:17.524Z,1028.31062831
2018-09-12T01:58:29.967Z,1028.31062831
2018-09-12T01:58:42.393Z,1028.31062831
2018-09-12T01:58:54.799Z,1028.31062831
2018-09-12T01:59:07.202Z,1028.41221995
2018-09-12T01:59:19.630Z,1028.41221995
2018-09-12T01:59:32.046Z,1028.41221995
2018-09-12T01:59:44.457Z,1028.41221995
2018-09-12T01:59:56.873Z,1028.41221995
2018-09-12T02:00:09.305Z,1028.34449219
2018-09-12T02:00:21.783Z,1028.34449219
2018-09-12T02:00:34.202Z,1028.34449219
2018-09-12T02:00:46.624Z,1028.34449219
2018-09-12T02:00:59.049Z,1028.34449219
2018-09-12T02:01:11.491Z,1028.34449219
2018-09-12T02:01:23.906Z,1028.34449219
2018-09-12T02:01:36.362Z,1028.34449219
2018-09-12T02:01:48.760Z,1028.34449219
2018-09-12T02:02:01.185Z,1028.34449219
2018-09-12T02:02:13.584Z,1028.34449219
2018-09-12T02:02:26.006Z,1028.34449219
2018-09-12T02:02:38.404Z,1028.34449219
2018-09-12T02:02:50.840Z,1028.34449219
2018-09-12T02:03:03.272Z,1028.31062831
2018-09-12T02:03:15.910Z,1028.31062831
2018-09-12T02:03:28.340Z,1028.31062831
2018-09-12T02:03:41.143Z,1028.31062831
2018-09-12T02:03:53.594Z,1028.31062831
2018-09-12T02:04:06.009Z,1028.34449219
2018-09-12T02:04:18.418Z,1028.34449219
2018-09-12T02:04:30.906Z,1028.34449219
2018-09-12T02:04:43.325Z,1028.34449219
2018-09-12T02:04:55.717Z,1028.34449219
2018-09-12T02:05:08.129Z,1028.34449219
2018-09-12T02:05:20.541Z,1028.34449219
2018-09-12T02:05:32.941Z,1028.34449219
2018-09-12T02:05:45.414Z,1028.34449219
2018-09-12T02:05:57.815Z,1028.34449219
2018-09-12T02:06:10.209Z,1028.31062831
2018-09-12T02:06:22.616Z,1028.31062831
2018-09-12T02:06:35.038Z,1028.31062831
2018-09-12T02:06:47.431Z,1028.31062831
2018-09-12T02:06:59.837Z,1028.31062831
2018-09-12T02:07:12.228Z,1028.34449219